CYPH

Inukjuak Airport

ICAO Code CYPH
IATA Code YPH
Name Inukjuak Airport
Location Inukjuak, Quebec, CA
Elevation 86 Feet / 26.2 Meters
Latitude 58.47194444
Longitude -78.07694444
METAR CYPH 182200Z AUTO 19012KT 9SM SCT091 BKN120 11/09 A2978 RMK SLP087
Extra information Display NOTAMS
Display Charts
Runway Length Width Surface Elevation
07 3520 ft 100 ft GRAVEL 78 ft
25 3520 ft 100 ft GRAVEL 77 ft